createdAt,value
2022-11-24T00:02:38.765Z,171.50
2022-11-24T00:06:16.464Z,179.50
2022-11-24T00:09:53.965Z,183.10
2022-11-24T00:13:33.102Z,174.70
2022-11-24T00:17:09.357Z,146.80
2022-11-24T00:20:53.184Z,188.40
2022-11-24T00:24:24.781Z,165.20
2022-11-24T00:28:02.484Z,174.90
2022-11-24T00:31:42.740Z,154.30
2022-11-24T00:35:17.893Z,191.80
2022-11-24T00:38:57.646Z,184.90
2022-11-24T00:42:33.301Z,155.10
2022-11-24T00:46:11.841Z,194.00
2022-11-24T00:49:48.628Z,187.10
2022-11-24T00:53:27.438Z,185.20
2022-11-24T00:57:04.117Z,198.00
2022-11-24T01:00:41.924Z,175.50
2022-11-24T01:04:19.530Z,181.10
2022-11-24T01:07:57.332Z,199.60
2022-11-24T01:11:55.108Z,181.20
2022-11-24T01:15:12.535Z,165.10
2022-11-24T01:18:50.344Z,163.20
2022-11-24T01:22:28.149Z,174.90
2022-11-24T01:26:08.681Z,152.80
2022-11-24T01:29:43.455Z,160.90
2022-11-24T01:33:20.852Z,177.30
2022-11-24T01:36:58.869Z,186.30
2022-11-24T01:40:36.264Z,188.60
2022-11-24T01:44:25.946Z,179.50
2022-11-24T01:47:51.771Z,184.10
2022-11-24T01:51:32.910Z,166.40
2022-11-24T01:55:12.945Z,156.10
2022-11-24T01:58:47.854Z,143.10
2022-11-24T02:02:23.648Z,171.70
2022-11-24T02:06:08.060Z,164.70
2022-11-24T02:09:48.904Z,155.10
2022-11-24T02:13:16.174Z,164.10
2022-11-24T02:16:53.915Z,158.30
2022-11-24T02:20:31.209Z,169.20
2022-11-24T02:24:22.024Z,131.80
2022-11-24T02:27:52.219Z,138.40
2022-11-24T02:31:24.287Z,131.80
2022-11-24T02:35:05.508Z,158.00
2022-11-24T02:38:39.627Z,158.70
2022-11-24T02:42:17.680Z,156.90
2022-11-24T02:45:55.038Z,166.10
2022-11-24T02:49:32.884Z,149.00
2022-11-24T02:53:10.382Z,164.60
2022-11-24T02:56:48.190Z,150.20
2022-11-24T03:00:25.996Z,147.50
2022-11-24T03:04:03.829Z,135.60
2022-11-24T03:07:41.224Z,140.40
2022-11-24T03:11:18.904Z,155.80
2022-11-24T03:14:56.609Z,133.40
2022-11-24T03:18:34.417Z,152.70
2022-11-24T03:22:13.419Z,154.20
2022-11-24T03:25:49.720Z,152.00
2022-11-24T03:29:27.425Z,144.00
2022-11-24T03:33:07.382Z,154.50
2022-11-24T03:36:42.741Z,134.70
2022-11-24T03:40:20.645Z,158.60
2022-11-24T03:43:58.157Z,156.20
2022-11-24T03:47:36.091Z,160.60
2022-11-24T03:51:13.650Z,160.30
2022-11-24T03:54:51.359Z,143.10
2022-11-24T03:58:29.981Z,161.80
2022-11-24T04:02:08.053Z,163.00
2022-11-24T04:05:44.365Z,154.50
2022-11-24T04:09:22.376Z,154.20
2022-11-24T04:12:59.716Z,143.90
2022-11-24T04:16:37.692Z,157.20
2022-11-24T04:20:16.308Z,167.60
2022-11-24T04:23:52.987Z,192.20
2022-11-24T04:27:32.256Z,213.60
2022-11-24T04:31:08.459Z,182.30
2022-11-24T04:34:45.794Z,183.80
2022-11-24T04:39:23.287Z,175.60
2022-11-24T04:42:01.264Z,177.20
2022-11-24T04:45:39.111Z,189.20
2022-11-24T04:49:35.660Z,175.60
2022-11-24T04:52:54.519Z,175.40
2022-11-24T04:56:33.413Z,186.10
2022-11-24T05:00:10.850Z,166.80
2022-11-24T05:03:47.520Z,167.30
2022-11-24T05:07:25.397Z,196.40
2022-11-24T05:11:06.930Z,164.10
2022-11-24T05:14:40.748Z,169.80
2022-11-24T05:18:18.345Z,166.50
2022-11-24T05:21:56.051Z,170.50
2022-11-24T05:25:36.827Z,158.30
2022-11-24T05:29:11.356Z,180.10
2022-11-24T05:32:49.066Z,203.90
2022-11-24T05:36:45.503Z,184.20
2022-11-24T05:40:05.906Z,168.90
2022-11-24T05:43:42.274Z,159.00
2022-11-24T05:47:20.496Z,159.90
2022-11-24T05:50:58.914Z,149.20
2022-11-24T05:54:35.428Z,127.00
2022-11-24T05:58:13.093Z,146.50
2022-11-24T06:01:50.815Z,137.80
2022-11-24T06:05:29.437Z,150.40
2022-11-24T06:09:08.455Z,144.00
2022-11-24T06:12:44.847Z,136.80
2022-11-24T06:16:21.848Z,150.70
2022-11-24T06:19:59.315Z,146.90
2022-11-24T06:23:36.921Z,157.00
2022-11-24T06:27:14.929Z,168.60
2022-11-24T06:30:52.530Z,178.80
2022-11-24T06:34:30.131Z,175.70
2022-11-24T06:38:07.836Z,178.50
2022-11-24T06:41:45.452Z,158.60
2022-11-24T06:45:23.620Z,169.10
2022-11-24T06:49:01.050Z,166.90
2022-11-24T06:52:38.652Z,164.30
2022-11-24T06:56:19.428Z,167.50
2022-11-24T06:59:53.988Z,162.30
2022-11-24T07:03:31.691Z,174.90
2022-11-24T07:07:09.402Z,165.50
2022-11-24T07:11:11.632Z,160.70
2022-11-24T07:14:24.672Z,166.00
2022-11-24T07:18:03.752Z,163.50
2022-11-24T07:21:40.286Z,171.80
2022-11-24T07:25:17.750Z,182.50
2022-11-24T07:28:55.493Z,174.90
2022-11-24T07:32:39.544Z,197.20
2022-11-24T07:36:13.462Z,180.40
2022-11-24T07:39:51.776Z,179.90
2022-11-24T07:43:31.654Z,151.30
2022-11-24T07:47:06.759Z,159.40
2022-11-24T07:50:44.378Z,181.00
2022-11-24T07:54:21.991Z,197.20
2022-11-24T07:58:01.152Z,175.30
2022-11-24T08:01:39.619Z,183.60
2022-11-24T08:05:15.209Z,166.30
2022-11-24T08:08:52.673Z,185.10
2022-11-24T08:12:31.422Z,183.10
2022-11-24T08:16:14.099Z,165.80
2022-11-24T08:19:46.120Z,186.50
2022-11-24T08:23:23.509Z,191.80
2022-11-24T08:27:01.215Z,198.60
2022-11-24T08:30:39.020Z,219.30
2022-11-24T08:34:16.598Z,166.00
2022-11-24T08:37:58.148Z,170.80
2022-11-24T08:41:34.283Z,203.90
2022-11-24T08:45:20.547Z,245.20
2022-11-24T08:48:52.423Z,236.70
2022-11-24T08:52:25.859Z,196.70
2022-11-24T08:56:04.306Z,235.50
2022-11-24T08:59:41.064Z,221.10
2022-11-24T09:03:18.256Z,225.80
2022-11-24T09:06:55.866Z,192.10
2022-11-24T09:10:33.973Z,175.30
2022-11-24T09:14:11.520Z,202.60
2022-11-24T09:17:48.969Z,193.00
2022-11-24T09:21:28.004Z,191.20
2022-11-24T09:25:05.978Z,185.70
2022-11-24T09:28:43.105Z,197.00
2022-11-24T09:32:19.684Z,201.40
2022-11-24T09:36:17.857Z,178.90
2022-11-24T09:39:41.554Z,175.00
2022-11-24T09:43:39.522Z,188.70
2022-11-24T09:47:16.004Z,183.10
2022-11-24T09:50:37.841Z,202.80
2022-11-24T09:54:13.638Z,219.10
2022-11-24T09:58:11.259Z,235.80
2022-11-24T10:01:30.288Z,256.10
2022-11-24T10:04:59.798Z,243.10
2022-11-24T10:08:46.863Z,211.20
2022-11-24T10:12:43.514Z,304.80
2022-11-24T10:16:04.848Z,296.10
2022-11-24T10:19:52.677Z,233.50
2022-11-24T10:23:47.020Z,226.10
2022-11-24T10:27:11.359Z,223.10
2022-11-24T10:30:36.451Z,238.70
2022-11-24T10:34:17.959Z,235.80
2022-11-24T10:38:03.259Z,251.90
2022-11-24T10:41:54.731Z,300.60
2022-11-24T10:45:19.858Z,254.00
2022-11-24T10:48:50.559Z,486.00
2022-11-24T10:52:24.945Z,616.20
2022-11-24T10:56:03.792Z,633.60
2022-11-24T10:59:39.608Z,577.50
2022-11-24T11:03:24.118Z,275.40
2022-11-24T11:07:06.961Z,235.00
2022-11-24T11:10:30.496Z,231.50
2022-11-24T11:14:11.276Z,231.10
2022-11-24T11:17:46.108Z,295.70
2022-11-24T11:21:35.267Z,278.70
2022-11-24T11:25:21.281Z,305.30
2022-11-24T11:28:39.220Z,293.30
2022-11-24T11:36:01.402Z,292.50
2022-11-24T11:39:40.435Z,378.10
2022-11-24T11:43:32.157Z,259.80
2022-11-24T11:46:50.076Z,266.50
2022-11-24T11:51:21.626Z,249.20
2022-11-24T11:54:37.663Z,224.10
2022-11-24T11:58:17.040Z,266.50
2022-11-24T12:01:49.072Z,258.50
2022-11-24T12:05:42.444Z,247.70
2022-11-24T12:09:21.943Z,262.10
2022-11-24T12:13:06.557Z,254.30
2022-11-24T12:16:32.573Z,243.60
2022-11-24T12:20:17.527Z,271.80
2022-11-24T12:23:41.135Z,255.70
2022-11-24T12:27:23.224Z,241.40
2022-11-24T12:31:06.379Z,217.60
2022-11-24T12:34:50.785Z,191.00
2022-11-24T12:38:24.341Z,245.30
2022-11-24T12:42:10.648Z,248.00
2022-11-24T12:45:34.546Z,450.70
2022-11-24T12:49:20.731Z,412.80
2022-11-24T12:52:50.969Z,280.10
2022-11-24T12:56:25.695Z,535.00
2022-11-24T12:59:59.816Z,332.20
2022-11-24T13:04:05.479Z,261.10
2022-11-24T13:07:50.856Z,249.80
2022-11-24T13:11:25.105Z,321.60
2022-11-24T13:14:48.859Z,339.60
2022-11-24T13:19:08.951Z,251.90
2022-11-24T13:22:28.116Z,238.30
2022-11-24T13:26:30.237Z,219.80
2022-11-24T13:29:44.588Z,206.60
2022-11-24T13:33:32.195Z,221.50
2022-11-24T13:36:57.023Z,228.20
2022-11-24T13:40:45.826Z,216.80
2022-11-24T13:44:17.733Z,205.90
2022-11-24T13:47:49.699Z,225.10
2022-11-24T13:51:28.451Z,214.50
2022-11-24T13:55:30.714Z,211.00
2022-11-24T13:58:44.375Z,211.50
2022-11-24T14:02:23.769Z,221.00
2022-11-24T14:05:59.246Z,236.90
2022-11-24T14:09:46.304Z,222.10
2022-11-24T14:13:26.327Z,247.20
2022-11-24T14:17:28.557Z,246.90
2022-11-24T14:20:39.790Z,228.00
2022-11-24T14:24:24.866Z,241.20
2022-11-24T14:27:55.148Z,241.20
2022-11-24T14:31:33.128Z,243.30
2022-11-24T14:35:28.996Z,228.80
2022-11-24T14:38:48.003Z,228.40
2022-11-24T14:42:27.672Z,253.00
2022-11-24T14:46:10.157Z,233.30
2022-11-24T14:49:43.109Z,224.10
2022-11-24T14:53:26.280Z,227.50
2022-11-24T14:56:57.853Z,233.80
2022-11-24T15:00:34.191Z,232.40
2022-11-24T15:04:54.419Z,238.10
2022-11-24T15:08:02.593Z,246.60
2022-11-24T15:11:35.327Z,257.20
2022-11-24T15:15:15.305Z,300.50
2022-11-24T15:18:59.249Z,279.50
2022-11-24T15:22:43.800Z,280.10
2022-11-24T15:26:05.529Z,288.60
2022-11-24T15:29:43.235Z,302.20
2022-11-24T15:33:23.907Z,309.90
2022-11-24T15:36:59.156Z,291.10
2022-11-24T15:40:40.751Z,387.30
2022-11-24T15:44:13.949Z,404.90
2022-11-24T15:47:52.371Z,457.20
2022-11-24T15:51:31.120Z,324.40
2022-11-24T15:55:13.251Z,259.10
2022-11-24T15:58:45.072Z,275.50
2022-11-24T16:02:23.786Z,245.10
2022-11-24T16:06:03.761Z,275.40
2022-11-24T16:09:41.845Z,263.20
2022-11-24T16:13:18.884Z,230.00
2022-11-24T16:16:53.900Z,234.30
2022-11-24T16:20:37.712Z,286.90
2022-11-24T16:24:09.719Z,381.80
2022-11-24T16:27:46.374Z,395.90
2022-11-24T16:31:29.662Z,427.40
2022-11-24T16:35:01.807Z,471.00
2022-11-24T16:38:39.613Z,352.90
2022-11-24T16:42:17.932Z,409.60
2022-11-24T16:46:14.531Z,384.20
2022-11-24T16:49:32.626Z,343.20
2022-11-24T16:53:10.429Z,342.80
2022-11-24T16:56:48.033Z,314.20
2022-11-24T17:00:25.637Z,341.90
2022-11-24T17:04:05.108Z,316.80
2022-11-24T17:07:41.215Z,307.90
2022-11-24T17:11:22.140Z,328.20
2022-11-24T17:15:24.426Z,276.60
2022-11-24T17:18:34.668Z,352.20
2022-11-24T17:22:11.962Z,370.10
2022-11-24T17:25:49.564Z,340.90
2022-11-24T17:29:27.704Z,325.90
2022-11-24T17:33:06.051Z,321.60
2022-11-24T17:36:44.929Z,317.00
2022-11-24T17:40:28.409Z,374.70
2022-11-24T17:43:58.376Z,313.20
2022-11-24T17:47:35.789Z,316.00
2022-11-24T17:51:16.110Z,275.00
2022-11-24T17:54:51.203Z,286.60
2022-11-24T17:58:31.267Z,289.70
2022-11-24T18:02:06.764Z,282.40
2022-11-24T18:05:44.411Z,294.40
2022-11-24T18:09:22.217Z,302.60
2022-11-24T18:12:59.922Z,398.50
2022-11-24T18:16:37.382Z,382.60
2022-11-24T18:20:15.841Z,375.20
2022-11-24T18:23:53.344Z,321.00
2022-11-24T18:27:31.557Z,321.50
2022-11-24T18:31:13.915Z,291.80
2022-11-24T18:34:45.890Z,294.30
2022-11-24T18:38:23.850Z,304.20
2022-11-24T18:42:01.369Z,300.90
2022-11-24T18:46:11.973Z,292.20
2022-11-24T18:49:25.769Z,297.10
2022-11-24T18:53:03.373Z,296.20
2022-11-24T18:56:41.280Z,335.00
2022-11-24T19:00:19.086Z,318.50
2022-11-24T19:03:58.941Z,314.70
2022-11-24T19:07:34.261Z,318.30
2022-11-24T19:11:20.084Z,324.20
2022-11-24T19:14:49.508Z,364.20
2022-11-24T19:18:29.555Z,315.70
2022-11-24T19:22:05.143Z,311.20
2022-11-24T19:25:42.810Z,304.60
2022-11-24T19:29:20.886Z,324.70
2022-11-24T19:32:58.014Z,319.30
2022-11-24T19:36:37.324Z,326.80
2022-11-24T19:40:38.015Z,320.80
2022-11-24T19:44:16.128Z,295.20
2022-11-24T19:47:57.796Z,322.00
2022-11-24T19:51:34.294Z,300.90
2022-11-24T19:55:09.158Z,305.70
2022-11-24T19:59:20.603Z,301.80
2022-11-24T20:03:08.274Z,292.30
2022-11-24T20:06:33.607Z,297.10
2022-11-24T20:10:08.120Z,298.10
2022-11-24T20:13:45.848Z,283.70
2022-11-24T20:17:21.259Z,279.80
2022-11-24T20:21:06.748Z,256.60
2022-11-24T20:24:37.016Z,284.80
2022-11-24T20:28:16.154Z,291.30
2022-11-24T20:31:55.835Z,300.90
2022-11-24T20:35:29.858Z,351.30
2022-11-24T20:39:18.297Z,331.90
2022-11-24T20:42:46.110Z,331.20
2022-11-24T20:46:26.377Z,332.50
2022-11-24T20:50:00.814Z,256.00
2022-11-24T20:53:41.688Z,261.70
2022-11-24T20:57:16.029Z,298.90
2022-11-24T21:00:53.558Z,337.00
2022-11-24T21:04:31.818Z,338.30
2022-11-24T21:08:09.012Z,341.10
2022-11-24T21:11:48.856Z,339.00
2022-11-24T21:15:24.869Z,324.20
2022-11-24T21:19:04.625Z,288.90
2022-11-24T21:22:40.483Z,310.20
2022-11-24T21:26:18.464Z,407.40
2022-11-24T21:29:59.358Z,382.30
2022-11-24T21:39:45.792Z,336.30
2022-11-24T21:43:22.723Z,292.40
2022-11-24T21:47:01.733Z,316.30
2022-11-24T21:50:38.382Z,277.10
2022-11-24T21:54:16.834Z,295.80
2022-11-24T21:57:53.687Z,276.80
2022-11-24T22:01:31.453Z,319.70
2022-11-24T22:05:09.607Z,315.40
2022-11-24T22:08:48.133Z,318.50
2022-11-24T22:12:24.503Z,305.30
2022-11-24T22:16:04.993Z,332.00
2022-11-24T22:19:39.707Z,317.40
2022-11-24T22:23:17.513Z,313.70
2022-11-24T22:26:55.115Z,310.90
2022-11-24T22:30:32.924Z,279.80
2022-11-24T22:34:10.422Z,303.80
2022-11-24T22:37:48.437Z,307.50
2022-11-24T22:41:25.939Z,282.80
2022-11-24T22:45:04.250Z,290.50
2022-11-24T22:48:41.870Z,334.00
2022-11-24T22:52:19.045Z,286.90
2022-11-24T22:55:56.647Z,309.60
2022-11-24T22:59:34.455Z,294.80
2022-11-24T23:03:12.126Z,314.90
2022-11-24T23:06:49.963Z,317.90
2022-11-24T23:10:27.463Z,288.80
2022-11-24T23:14:13.462Z,309.90
2022-11-24T23:17:44.002Z,324.40
2022-11-24T23:21:25.184Z,317.90
2022-11-24T23:24:58.382Z,294.60
2022-11-24T23:28:36.597Z,329.40
2022-11-24T23:32:13.620Z,314.60
2022-11-24T23:35:51.430Z,312.90
2022-11-24T23:39:29.105Z,333.30
2022-11-24T23:43:06.902Z,295.80
2022-11-24T23:46:44.504Z,293.10
2022-11-24T23:50:22.310Z,297.40
2022-11-24T23:54:00.644Z,311.50
2022-11-24T23:57:37.670Z,317.90
